createdAt,value
2022-08-24T00:00:29.776Z,72.61
2022-08-24T00:03:06.412Z,72.75
2022-08-24T00:05:36.068Z,72.93
2022-08-24T00:08:06.600Z,72.88
2022-08-24T00:10:37.007Z,72.92
2022-08-24T00:13:07.481Z,72.95
2022-08-24T00:15:37.809Z,72.99
2022-08-24T00:18:08.584Z,72.93
2022-08-24T00:20:40.031Z,72.95
2022-08-24T00:23:12.870Z,72.89
2022-08-24T00:25:43.156Z,72.91
2022-08-24T00:28:13.745Z,72.93
2022-08-24T00:30:44.171Z,73.02
2022-08-24T00:33:13.835Z,73.19
2022-08-24T00:35:44.915Z,73.20
2022-08-24T00:38:15.941Z,73.18
2022-08-24T00:40:49.023Z,73.37
2022-08-24T00:43:22.598Z,73.50
2022-08-24T00:46:03.582Z,73.49
2022-08-24T00:48:35.599Z,73.57
2022-08-24T00:51:15.333Z,73.60
2022-08-24T00:53:50.415Z,73.69
2022-08-24T00:56:35.694Z,73.78
2022-08-24T00:59:12.988Z,74.04
2022-08-24T01:01:44.737Z,73.96
2022-08-24T01:04:24.490Z,74.02
2022-08-24T01:06:54.539Z,74.02
2022-08-24T01:09:29.394Z,73.98
2022-08-24T01:12:01.766Z,74.22
2022-08-24T01:14:32.206Z,74.29
2022-08-24T01:17:22.375Z,74.28
2022-08-24T01:19:56.267Z,74.23
2022-08-24T01:23:08.254Z,74.32
2022-08-24T01:25:42.114Z,74.43
2022-08-24T01:28:25.188Z,74.46
2022-08-24T01:30:58.955Z,74.47
2022-08-24T01:33:32.273Z,74.47
2022-08-24T01:36:30.579Z,74.51
2022-08-24T01:39:08.236Z,74.56
2022-08-24T01:41:37.168Z,74.52
2022-08-24T01:44:07.877Z,74.62
2022-08-24T01:46:40.576Z,74.66
2022-08-24T01:49:11.650Z,74.60
2022-08-24T01:51:41.735Z,74.26
2022-08-24T01:54:12.723Z,74.03
2022-08-24T01:56:44.507Z,74.19
2022-08-24T01:59:16.595Z,74.28
2022-08-24T02:01:53.252Z,74.43
2022-08-24T02:04:22.970Z,74.57
2022-08-24T02:06:54.998Z,74.62
2022-08-24T02:09:33.293Z,74.68
2022-08-24T02:12:04.833Z,74.89
2022-08-24T02:14:37.086Z,75.18
2022-08-24T02:17:08.884Z,75.05
2022-08-24T02:19:41.250Z,75.03
2022-08-24T02:22:12.932Z,75.10
2022-08-24T02:24:46.912Z,75.12
2022-08-24T02:27:16.813Z,75.10
2022-08-24T02:29:50.517Z,75.16
2022-08-24T02:32:23.186Z,75.13
2022-08-24T02:34:54.978Z,75.22
2022-08-24T02:37:25.771Z,75.28
2022-08-24T02:39:55.901Z,75.34
2022-08-24T02:42:27.125Z,75.58
2022-08-24T02:44:56.413Z,75.38
2022-08-24T02:47:32.810Z,75.45
2022-08-24T02:50:16.532Z,75.46
2022-08-24T02:52:46.643Z,75.35
2022-08-24T02:55:19.798Z,75.46
2022-08-24T02:57:52.353Z,75.64
2022-08-24T03:00:25.306Z,75.66
2022-08-24T03:02:58.205Z,75.63
2022-08-24T03:05:28.634Z,75.65
2022-08-24T03:07:59.917Z,75.64
2022-08-24T03:10:33.637Z,75.66
2022-08-24T03:13:03.970Z,75.65
2022-08-24T03:15:36.190Z,75.74
2022-08-24T03:18:05.904Z,75.68
2022-08-24T03:20:37.870Z,75.75
2022-08-24T03:23:07.227Z,75.60
2022-08-24T03:25:37.717Z,75.66
2022-08-24T03:28:10.998Z,75.71
2022-08-24T03:30:46.850Z,75.72
2022-08-24T03:33:21.789Z,75.85
2022-08-24T03:35:52.853Z,75.89
2022-08-24T03:38:23.691Z,75.84
2022-08-24T03:40:56.712Z,75.80
2022-08-24T03:43:49.126Z,75.76
2022-08-24T03:46:25.538Z,75.80
2022-08-24T03:49:00.415Z,75.82
2022-08-24T03:51:32.068Z,75.81
2022-08-24T03:54:03.422Z,75.97
2022-08-24T03:56:35.770Z,76.00
2022-08-24T03:59:08.449Z,75.99
2022-08-24T04:01:41.273Z,75.96
2022-08-24T04:04:14.623Z,75.92
2022-08-24T04:06:47.222Z,75.89
2022-08-24T04:09:19.714Z,75.76
2022-08-24T04:11:52.073Z,75.77
2022-08-24T04:14:28.012Z,75.80
2022-08-24T04:17:19.333Z,75.78
2022-08-24T04:19:59.187Z,75.81
2022-08-24T04:22:39.454Z,75.89
2022-08-24T04:25:11.437Z,75.89
2022-08-24T04:27:41.854Z,75.90
2022-08-24T04:30:14.632Z,76.06
2022-08-24T04:33:17.111Z,76.19
2022-08-24T04:51:45.753Z,75.49
2022-08-24T04:55:14.084Z,75.51
2022-08-24T05:06:08.714Z,75.81
2022-08-24T05:13:05.203Z,75.96
2022-08-24T05:16:34.865Z,76.02
2022-08-24T05:27:19.098Z,76.02
2022-08-24T05:41:22.737Z,76.07
2022-08-24T05:44:13.569Z,76.02
2022-08-24T05:47:34.515Z,75.80
2022-08-24T05:50:53.758Z,75.89
2022-08-24T05:53:43.968Z,75.79
2022-08-24T05:56:38.222Z,75.74
2022-08-24T05:59:47.696Z,75.66
2022-08-24T06:02:53.062Z,75.70
2022-08-24T06:06:23.473Z,75.57
2022-08-24T06:09:34.565Z,75.39
2022-08-24T06:12:45.712Z,75.32
2022-08-24T06:15:23.334Z,75.33
2022-08-24T06:18:01.355Z,75.02
2022-08-24T06:20:41.377Z,74.96
2022-08-24T06:23:29.986Z,74.76
2022-08-24T06:26:24.602Z,74.79
2022-08-24T06:28:54.944Z,74.50
2022-08-24T06:31:25.583Z,74.39
2022-08-24T06:34:04.135Z,74.21
2022-08-24T06:37:49.131Z,74.05
2022-08-24T06:40:21.693Z,74.03
2022-08-24T06:42:53.938Z,74.09
2022-08-24T06:45:37.058Z,73.99
2022-08-24T06:48:09.671Z,73.92
2022-08-24T06:50:41.875Z,73.49
2022-08-24T06:53:15.250Z,73.09
2022-08-24T06:55:50.007Z,73.12
2022-08-24T06:58:21.050Z,73.20
2022-08-24T07:00:51.933Z,73.16
2022-08-24T07:03:25.547Z,73.02
2022-08-24T07:06:05.187Z,73.02
2022-08-24T07:08:45.164Z,72.67
2022-08-24T07:11:21.246Z,72.33
2022-08-24T07:13:51.787Z,70.33
2022-08-24T07:16:22.726Z,68.96
2022-08-24T07:18:57.249Z,67.59
2022-08-24T07:21:27.261Z,66.87
2022-08-24T07:23:59.720Z,66.24
2022-08-24T07:26:31.830Z,65.70
2022-08-24T07:29:25.018Z,65.20
2022-08-24T07:32:01.909Z,63.97
2022-08-24T07:34:39.912Z,62.35
2022-08-24T07:37:10.027Z,61.71
2022-08-24T07:39:42.778Z,61.43
2022-08-24T07:42:18.845Z,61.15
2022-08-24T07:44:54.697Z,60.75
2022-08-24T07:47:38.164Z,60.06
2022-08-24T07:50:19.122Z,60.07
2022-08-24T07:52:49.550Z,59.51
2022-08-24T07:55:20.868Z,58.85
2022-08-24T07:57:51.619Z,58.74
2022-08-24T08:00:23.929Z,57.95
2022-08-24T08:02:59.417Z,57.74
2022-08-24T08:05:33.654Z,57.18
2022-08-24T08:08:07.042Z,56.23
2022-08-24T08:10:39.208Z,54.45
2022-08-24T08:13:12.093Z,54.87
2022-08-24T08:15:42.693Z,54.34
2022-08-24T08:18:14.088Z,53.73
2022-08-24T08:20:47.430Z,53.43
2022-08-24T08:23:38.302Z,51.97
2022-08-24T08:26:25.089Z,52.13
2022-08-24T08:29:10.826Z,51.00
2022-08-24T08:31:43.178Z,50.88
2022-08-24T08:34:15.445Z,50.59
2022-08-24T08:36:48.998Z,49.91
2022-08-24T08:39:23.727Z,49.03
2022-08-24T08:42:07.778Z,48.84
2022-08-24T08:44:50.504Z,49.01
2022-08-24T08:50:56.487Z,47.12
2022-08-24T08:53:42.958Z,46.30
2022-08-24T08:56:40.514Z,45.73
2022-08-24T08:59:26.292Z,44.98
2022-08-24T09:02:36.230Z,44.81
2022-08-24T09:05:31.410Z,43.86
2022-08-24T09:08:36.868Z,43.47
2022-08-24T09:12:00.244Z,43.23
2022-08-24T09:14:58.403Z,42.20
2022-08-24T09:18:03.754Z,41.70
2022-08-24T09:20:51.569Z,40.82
2022-08-24T09:23:29.948Z,40.68
2022-08-24T09:26:21.567Z,40.49
2022-08-24T09:29:25.179Z,39.13
2022-08-24T09:32:02.000Z,38.61
2022-08-24T09:34:38.785Z,38.61
2022-08-24T09:37:40.487Z,38.47
2022-08-24T09:40:28.587Z,38.04
2022-08-24T09:43:24.812Z,37.44
2022-08-24T09:45:58.231Z,37.41
2022-08-24T09:49:06.333Z,36.93
2022-08-24T09:52:00.656Z,36.30
2022-08-24T09:55:01.678Z,36.36
2022-08-24T09:58:00.620Z,35.85
2022-08-24T10:00:50.683Z,35.67
2022-08-24T10:03:42.671Z,35.45
2022-08-24T10:06:29.237Z,35.23
2022-08-24T10:09:29.626Z,34.86
2022-08-24T10:12:05.214Z,35.06
2022-08-24T10:14:53.461Z,35.31
2022-08-24T10:17:41.185Z,35.25
2022-08-24T10:20:29.304Z,35.55
2022-08-24T10:23:18.806Z,35.76
2022-08-24T10:26:14.146Z,35.59
2022-08-24T10:29:04.734Z,35.20
2022-08-24T10:31:39.024Z,35.16
2022-08-24T10:34:36.918Z,35.08
2022-08-24T10:37:51.067Z,34.97
2022-08-24T10:41:16.018Z,34.78
2022-08-24T10:44:09.347Z,34.85
2022-08-24T10:46:49.821Z,35.13
2022-08-24T10:49:38.632Z,35.06
2022-08-24T10:52:27.518Z,34.96
2022-08-24T10:54:59.697Z,35.08
2022-08-24T10:57:37.259Z,35.11
2022-08-24T11:00:23.008Z,35.29
2022-08-24T11:03:15.578Z,34.94
2022-08-24T11:05:49.723Z,35.05
2022-08-24T11:08:28.458Z,34.83
2022-08-24T11:11:14.800Z,34.68
2022-08-24T11:14:30.747Z,34.76
2022-08-24T11:17:23.648Z,34.92
2022-08-24T11:19:57.853Z,34.72
2022-08-24T11:22:51.905Z,34.79
2022-08-24T11:25:33.977Z,34.53
2022-08-24T11:28:11.287Z,34.69
2022-08-24T11:30:41.953Z,34.41
2022-08-24T11:33:32.044Z,34.56
2022-08-24T11:36:02.805Z,34.67
2022-08-24T11:38:54.618Z,35.03
2022-08-24T11:41:35.638Z,35.22
2022-08-24T11:44:34.577Z,35.15
2022-08-24T11:47:36.618Z,35.20
2022-08-24T11:50:24.072Z,35.37
2022-08-24T11:53:18.999Z,35.38
2022-08-24T11:56:18.737Z,35.52
2022-08-24T11:58:59.967Z,35.64
2022-08-24T12:01:46.311Z,35.85
2022-08-24T12:04:19.059Z,36.04
2022-08-24T12:07:27.708Z,35.96
2022-08-24T12:10:06.884Z,36.08
2022-08-24T12:12:50.995Z,35.97
2022-08-24T12:16:01.757Z,36.47
2022-08-24T12:18:46.111Z,36.65
2022-08-24T12:21:19.907Z,36.61
2022-08-24T12:23:54.975Z,36.68
2022-08-24T12:27:02.029Z,36.85
2022-08-24T12:29:55.264Z,37.03
2022-08-24T12:32:28.766Z,37.38
2022-08-24T12:35:30.603Z,37.54
2022-08-24T12:38:09.540Z,37.75
2022-08-24T12:41:14.540Z,37.73
2022-08-24T12:44:02.883Z,38.10
2022-08-24T12:46:36.433Z,38.13
2022-08-24T12:49:33.704Z,38.17
2022-08-24T13:34:19.110Z,40.51
2022-08-24T13:37:24.595Z,40.52
2022-08-24T13:40:18.720Z,40.77
2022-08-24T13:43:09.142Z,40.75
2022-08-24T13:46:27.611Z,41.14
2022-08-24T13:49:16.294Z,41.24
2022-08-24T13:52:08.354Z,41.41
2022-08-24T13:55:03.368Z,41.60
2022-08-24T13:57:54.261Z,41.84
2022-08-24T14:00:47.958Z,41.74
2022-08-24T14:03:23.366Z,41.96
2022-08-24T14:06:13.525Z,42.02
2022-08-24T14:09:20.373Z,42.01
2022-08-24T14:12:17.013Z,42.20
2022-08-24T14:15:16.237Z,42.20
2022-08-24T14:18:21.821Z,42.46
2022-08-24T14:53:42.715Z,42.98
2022-08-24T15:17:24.451Z,43.60
2022-08-24T16:32:23.354Z,46.11
2022-08-24T18:31:53.708Z,52.44
2022-08-24T18:35:00.223Z,52.64
2022-08-24T18:45:21.752Z,52.92
2022-08-24T18:48:15.190Z,53.13
2022-08-24T18:51:47.774Z,53.26
2022-08-24T18:54:59.443Z,53.41
2022-08-24T18:58:22.342Z,53.51
2022-08-24T19:01:22.412Z,53.80
2022-08-24T19:04:52.968Z,53.84
2022-08-24T19:07:54.113Z,53.97
2022-08-24T19:32:13.923Z,55.10
2022-08-24T19:35:20.973Z,55.18
2022-08-24T19:38:45.490Z,55.32
2022-08-24T19:41:39.930Z,55.46
2022-08-24T19:47:43.131Z,55.64
2022-08-24T19:50:36.199Z,55.59
2022-08-24T19:53:13.346Z,55.82
2022-08-24T19:55:50.337Z,55.73
2022-08-24T19:58:54.021Z,55.86
2022-08-24T20:02:07.814Z,56.03
2022-08-24T20:04:44.675Z,56.11
2022-08-24T20:07:55.461Z,56.22
2022-08-24T20:10:28.928Z,56.40
2022-08-24T20:13:30.647Z,56.57
2022-08-24T20:16:34.580Z,56.63
2022-08-24T20:19:17.772Z,56.62
2022-08-24T20:22:28.983Z,56.69
2022-08-24T20:26:09.416Z,57.01
2022-08-24T20:29:00.608Z,57.00
2022-08-24T20:34:55.676Z,57.35
2022-08-24T20:37:31.757Z,57.35
2022-08-24T20:40:28.986Z,57.42
2022-08-24T20:43:18.706Z,57.54
2022-08-24T20:45:55.822Z,57.57
2022-08-24T20:48:34.152Z,57.69
2022-08-24T20:51:44.908Z,57.71
2022-08-24T20:54:42.056Z,57.80
2022-08-24T20:57:51.022Z,57.95
2022-08-24T21:01:16.906Z,58.04
2022-08-24T21:04:27.186Z,58.18
2022-08-24T21:08:04.797Z,58.23
2022-08-24T21:11:36.750Z,58.41
2022-08-24T21:14:33.345Z,58.40
2022-08-24T21:17:45.506Z,58.55
2022-08-24T21:21:03.322Z,58.64
2022-08-24T21:24:08.418Z,58.65
2022-08-24T21:27:06.269Z,58.81
2022-08-24T21:30:22.989Z,58.89
2022-08-24T21:33:55.144Z,58.96
2022-08-24T21:53:24.538Z,59.75
2022-08-24T21:56:40.757Z,59.45
2022-08-24T21:59:12.387Z,59.58
2022-08-24T22:02:13.472Z,59.93
2022-08-24T22:05:11.102Z,60.23
2022-08-24T22:08:22.146Z,60.41
2022-08-24T22:11:35.747Z,60.68
2022-08-24T22:14:48.112Z,60.71
2022-08-24T22:17:22.935Z,60.86
2022-08-24T22:20:32.930Z,60.92
2022-08-24T22:23:45.108Z,61.17
2022-08-24T22:26:54.781Z,61.23
2022-08-24T22:30:00.425Z,61.36
2022-08-24T22:32:38.283Z,61.68
2022-08-24T22:35:36.173Z,61.45
2022-08-24T22:42:27.161Z,62.29
2022-08-24T22:45:49.058Z,62.35
2022-08-24T22:49:03.317Z,62.46
2022-08-24T22:52:22.338Z,62.53
2022-08-24T22:55:43.153Z,62.67
2022-08-24T22:59:18.170Z,62.84
2022-08-24T23:02:36.575Z,63.04
2022-08-24T23:09:56.088Z,63.14
2022-08-24T23:13:20.836Z,63.19
2022-08-24T23:16:31.999Z,63.27
2022-08-24T23:19:47.962Z,63.28
2022-08-24T23:26:56.442Z,63.35
2022-08-24T23:37:28.911Z,63.56
2022-08-24T23:40:49.912Z,63.60
2022-08-24T23:47:59.928Z,63.68
2022-08-24T23:51:40.224Z,63.99
2022-08-24T23:54:53.771Z,64.05
2022-08-24T23:58:56.643Z,64.35
